sensor_id;sensor_type;location;lat;lon;timestamp;pressure;altitude;pressure_sealevel;temperature;humidity
84821;BME280;75060;52.510;13.454;2023-12-29T00:01:57;100396.53;;;8.04;73.08
84821;BME280;75060;52.510;13.454;2023-12-29T00:04:24;100405.72;;;8.08;73.31
84821;BME280;75060;52.510;13.454;2023-12-29T00:06:50;100407.09;;;8.10;72.77
84821;BME280;75060;52.510;13.454;2023-12-29T00:09:15;100405.22;;;8.11;73.37
84821;BME280;75060;52.510;13.454;2023-12-29T00:11:40;100398.84;;;8.12;73.38
84821;BME280;75060;52.510;13.454;2023-12-29T00:14:06;100409.56;;;8.12;72.69
84821;BME280;75060;52.510;13.454;2023-12-29T00:16:31;100405.84;;;8.13;73.86
84821;BME280;75060;52.510;13.454;2023-12-29T00:18:56;100391.63;;;8.12;72.93
84821;BME280;75060;52.510;13.454;2023-12-29T00:21:21;100393.13;;;8.08;72.77
84821;BME280;75060;52.510;13.454;2023-12-29T00:23:47;100379.06;;;8.13;73.00
84821;BME280;75060;52.510;13.454;2023-12-29T00:26:16;100386.00;;;8.14;73.42
84821;BME280;75060;52.510;13.454;2023-12-29T00:28:41;100368.63;;;8.16;72.21
84821;BME280;75060;52.510;13.454;2023-12-29T00:31:07;100370.03;;;8.19;72.89
84821;BME280;75060;52.510;13.454;2023-12-29T00:33:32;100379.91;;;8.18;72.35
84821;BME280;75060;52.510;13.454;2023-12-29T00:35:57;100367.59;;;8.17;73.65
84821;BME280;75060;52.510;13.454;2023-12-29T00:38:23;100366.50;;;8.18;72.10
84821;BME280;75060;52.510;13.454;2023-12-29T00:40:48;100363.59;;;8.20;71.70
84821;BME280;75060;52.510;13.454;2023-12-29T00:43:14;100366.22;;;8.15;72.86
84821;BME280;75060;52.510;13.454;2023-12-29T00:45:39;100367.91;;;8.21;72.14
84821;BME280;75060;52.510;13.454;2023-12-29T00:48:04;100363.09;;;8.23;72.78
84821;BME280;75060;52.510;13.454;2023-12-29T00:50:30;100366.25;;;8.20;72.20
84821;BME280;75060;52.510;13.454;2023-12-29T00:52:55;100360.66;;;8.21;71.82
84821;BME280;75060;52.510;13.454;2023-12-29T00:55:20;100352.88;;;8.20;72.12
84821;BME280;75060;52.510;13.454;2023-12-29T00:57:46;100358.22;;;8.20;72.26
84821;BME280;75060;52.510;13.454;2023-12-29T01:00:12;100358.47;;;8.18;72.53
84821;BME280;75060;52.510;13.454;2023-12-29T01:02:39;100348.00;;;8.17;72.00
84821;BME280;75060;52.510;13.454;2023-12-29T01:05:05;100351.78;;;8.16;72.45
84821;BME280;75060;52.510;13.454;2023-12-29T01:07:51;100353.38;;;8.17;71.82
84821;BME280;75060;52.510;13.454;2023-12-29T01:10:16;100350.00;;;8.10;72.24
84821;BME280;75060;52.510;13.454;2023-12-29T01:12:54;100334.44;;;8.07;72.87
84821;BME280;75060;52.510;13.454;2023-12-29T01:15:29;100334.88;;;7.99;73.09
84821;BME280;75060;52.510;13.454;2023-12-29T01:17:55;100334.13;;;8.03;72.65
84821;BME280;75060;52.510;13.454;2023-12-29T01:20:20;100330.00;;;8.12;71.58
84821;BME280;75060;52.510;13.454;2023-12-29T01:22:45;100319.75;;;8.09;71.59
84821;BME280;75060;52.510;13.454;2023-12-29T01:25:11;100317.66;;;8.11;72.58
84821;BME280;75060;52.510;13.454;2023-12-29T01:27:36;100322.28;;;8.16;71.81
84821;BME280;75060;52.510;13.454;2023-12-29T01:30:01;100313.69;;;8.14;72.77
84821;BME280;75060;52.510;13.454;2023-12-29T01:32:27;100321.97;;;8.12;72.42
84821;BME280;75060;52.510;13.454;2023-12-29T01:34:52;100312.63;;;8.15;72.09
84821;BME280;75060;52.510;13.454;2023-12-29T01:37:18;100307.56;;;8.18;71.20
84821;BME280;75060;52.510;13.454;2023-12-29T01:39:43;100310.00;;;8.20;71.31
84821;BME280;75060;52.510;13.454;2023-12-29T01:42:08;100315.38;;;8.20;71.54
84821;BME280;75060;52.510;13.454;2023-12-29T01:44:34;100309.44;;;8.18;71.81
84821;BME280;75060;52.510;13.454;2023-12-29T01:47:00;100308.97;;;8.21;70.96
84821;BME280;75060;52.510;13.454;2023-12-29T01:49:27;100303.03;;;8.19;71.58
84821;BME280;75060;52.510;13.454;2023-12-29T01:51:58;100303.53;;;8.16;71.80
84821;BME280;75060;52.510;13.454;2023-12-29T01:54:27;100297.09;;;8.17;71.74
84821;BME280;75060;52.510;13.454;2023-12-29T01:56:57;100282.38;;;8.14;72.70
84821;BME280;75060;52.510;13.454;2023-12-29T01:59:26;100281.78;;;8.12;72.51
84821;BME280;75060;52.510;13.454;2023-12-29T02:01:53;100282.41;;;8.19;71.42
84821;BME280;75060;52.510;13.454;2023-12-29T02:04:20;100284.53;;;8.17;72.12
84821;BME280;75060;52.510;13.454;2023-12-29T02:06:45;100275.38;;;8.13;71.88
84821;BME280;75060;52.510;13.454;2023-12-29T02:09:11;100274.31;;;8.14;71.75
84821;BME280;75060;52.510;13.454;2023-12-29T02:11:38;100270.28;;;8.12;72.18
84821;BME280;75060;52.510;13.454;2023-12-29T02:14:03;100273.97;;;8.11;72.70
84821;BME280;75060;52.510;13.454;2023-12-29T02:16:34;100268.47;;;8.17;70.75
84821;BME280;75060;52.510;13.454;2023-12-29T02:19:12;100271.94;;;8.18;71.37
84821;BME280;75060;52.510;13.454;2023-12-29T02:21:39;100262.53;;;8.15;72.47
84821;BME280;75060;52.510;13.454;2023-12-29T02:24:04;100260.44;;;8.17;71.48
84821;BME280;75060;52.510;13.454;2023-12-29T02:26:31;100255.91;;;8.23;71.71
84821;BME280;75060;52.510;13.454;2023-12-29T02:29:02;100255.44;;;8.26;71.52
84821;BME280;75060;52.510;13.454;2023-12-29T02:31:30;100247.28;;;8.16;72.04
84821;BME280;75060;52.510;13.454;2023-12-29T02:33:58;100252.41;;;8.17;72.13
84821;BME280;75060;52.510;13.454;2023-12-29T02:36:25;100232.56;;;8.18;71.31
84821;BME280;75060;52.510;13.454;2023-12-29T02:38:50;100241.19;;;8.20;71.63
84821;BME280;75060;52.510;13.454;2023-12-29T02:41:16;100237.13;;;8.18;71.79
84821;BME280;75060;52.510;13.454;2023-12-29T02:43:41;100224.53;;;8.18;71.95
84821;BME280;75060;52.510;13.454;2023-12-29T02:46:06;100231.09;;;8.11;72.37
84821;BME280;75060;52.510;13.454;2023-12-29T02:48:32;100228.13;;;8.07;72.16
84821;BME280;75060;52.510;13.454;2023-12-29T02:50:57;100232.25;;;8.15;72.30
84821;BME280;75060;52.510;13.454;2023-12-29T02:53:22;100212.81;;;8.24;72.03
84821;BME280;75060;52.510;13.454;2023-12-29T02:55:47;100223.59;;;8.29;71.20
84821;BME280;75060;52.510;13.454;2023-12-29T02:58:13;100209.94;;;8.31;71.02
84821;BME280;75060;52.510;13.454;2023-12-29T03:00:38;100201.94;;;8.36;71.14
84821;BME280;75060;52.510;13.454;2023-12-29T03:03:04;100205.13;;;8.33;71.15
84821;BME280;75060;52.510;13.454;2023-12-29T03:05:29;100203.22;;;8.28;72.19
84821;BME280;75060;52.510;13.454;2023-12-29T03:07:54;100209.66;;;8.27;71.40
84821;BME280;75060;52.510;13.454;2023-12-29T03:10:19;100208.91;;;8.32;72.44
84821;BME280;75060;52.510;13.454;2023-12-29T03:12:45;100198.75;;;8.39;71.09
84821;BME280;75060;52.510;13.454;2023-12-29T03:15:10;100203.69;;;8.47;70.88
84821;BME280;75060;52.510;13.454;2023-12-29T03:17:35;100206.97;;;8.53;70.60
84821;BME280;75060;52.510;13.454;2023-12-29T03:20:02;100195.75;;;8.56;71.02
84821;BME280;75060;52.510;13.454;2023-12-29T03:22:28;100193.56;;;8.53;71.08
84821;BME280;75060;52.510;13.454;2023-12-29T03:24:53;100186.03;;;8.50;70.42
84821;BME280;75060;52.510;13.454;2023-12-29T03:27:18;100193.75;;;8.47;71.48
84821;BME280;75060;52.510;13.454;2023-12-29T03:29:44;100186.47;;;8.43;70.77
84821;BME280;75060;52.510;13.454;2023-12-29T03:32:09;100189.41;;;8.41;70.58
84821;BME280;75060;52.510;13.454;2023-12-29T03:34:34;100203.66;;;8.42;70.95
84821;BME280;75060;52.510;13.454;2023-12-29T03:36:59;100188.41;;;8.47;71.46
84821;BME280;75060;52.510;13.454;2023-12-29T03:39:25;100178.00;;;8.50;70.30
84821;BME280;75060;52.510;13.454;2023-12-29T03:41:50;100185.31;;;8.60;69.46
84821;BME280;75060;52.510;13.454;2023-12-29T03:44:15;100175.94;;;8.57;70.51
84821;BME280;75060;52.510;13.454;2023-12-29T03:46:42;100178.66;;;8.62;70.10
84821;BME280;75060;52.510;13.454;2023-12-29T03:49:08;100171.13;;;8.59;69.28
84821;BME280;75060;52.510;13.454;2023-12-29T03:51:33;100179.19;;;8.64;69.79
84821;BME280;75060;52.510;13.454;2023-12-29T03:53:58;100169.59;;;8.68;69.85
84821;BME280;75060;52.510;13.454;2023-12-29T03:56:24;100163.41;;;8.68;69.98
84821;BME280;75060;52.510;13.454;2023-12-29T03:58:49;100158.06;;;8.68;70.05
84821;BME280;75060;52.510;13.454;2023-12-29T04:01:16;100162.16;;;8.75;70.59
84821;BME280;75060;52.510;13.454;2023-12-29T04:03:41;100169.16;;;8.81;69.28
84821;BME280;75060;52.510;13.454;2023-12-29T04:06:07;100159.84;;;8.89;69.86
84821;BME280;75060;52.510;13.454;2023-12-29T04:08:49;100156.63;;;8.92;68.50
84821;BME280;75060;52.510;13.454;2023-12-29T04:11:18;100154.25;;;8.95;69.11
84821;BME280;75060;52.510;13.454;2023-12-29T04:13:44;100146.41;;;8.89;69.18
84821;BME280;75060;52.510;13.454;2023-12-29T04:16:10;100135.94;;;8.87;68.23
84821;BME280;75060;52.510;13.454;2023-12-29T04:18:35;100134.28;;;8.81;68.67
84821;BME280;75060;52.510;13.454;2023-12-29T04:21:01;100142.66;;;8.85;68.91
84821;BME280;75060;52.510;13.454;2023-12-29T04:23:26;100135.88;;;8.77;69.83
84821;BME280;75060;52.510;13.454;2023-12-29T04:25:51;100126.47;;;8.75;69.15
84821;BME280;75060;52.510;13.454;2023-12-29T04:28:17;100122.72;;;8.76;69.32
84821;BME280;75060;52.510;13.454;2023-12-29T04:30:42;100124.88;;;8.79;68.36
84821;BME280;75060;52.510;13.454;2023-12-29T04:33:07;100120.88;;;8.81;68.63
84821;BME280;75060;52.510;13.454;2023-12-29T04:35:33;100115.28;;;8.83;69.10
84821;BME280;75060;52.510;13.454;2023-12-29T04:37:58;100138.34;;;8.84;69.12
84821;BME280;75060;52.510;13.454;2023-12-29T04:40:23;100117.16;;;8.82;68.24
84821;BME280;75060;52.510;13.454;2023-12-29T04:42:48;100110.50;;;8.90;68.91
84821;BME280;75060;52.510;13.454;2023-12-29T04:45:14;100120.94;;;8.86;68.63
84821;BME280;75060;52.510;13.454;2023-12-29T04:47:39;100119.00;;;8.82;69.25
84821;BME280;75060;52.510;13.454;2023-12-29T04:50:05;100104.53;;;8.78;69.19
84821;BME280;75060;52.510;13.454;2023-12-29T04:52:33;100108.97;;;8.67;69.33
84821;BME280;75060;52.510;13.454;2023-12-29T04:54:59;100111.97;;;8.71;69.74
84821;BME280;75060;52.510;13.454;2023-12-29T04:57:24;100089.66;;;8.65;70.62
84821;BME280;75060;52.510;13.454;2023-12-29T04:59:49;100089.63;;;8.60;70.07
84821;BME280;75060;52.510;13.454;2023-12-29T05:02:15;100099.06;;;8.68;69.72
84821;BME280;75060;52.510;13.454;2023-12-29T05:04:40;100093.44;;;8.69;69.91
84821;BME280;75060;52.510;13.454;2023-12-29T05:07:08;100095.88;;;8.71;70.70
84821;BME280;75060;52.510;13.454;2023-12-29T05:09:33;100098.31;;;8.72;70.17
84821;BME280;75060;52.510;13.454;2023-12-29T05:11:58;100106.38;;;8.77;70.01
84821;BME280;75060;52.510;13.454;2023-12-29T05:14:24;100087.91;;;8.81;69.89
84821;BME280;75060;52.510;13.454;2023-12-29T05:16:49;100089.81;;;8.85;69.56
84821;BME280;75060;52.510;13.454;2023-12-29T05:19:14;100095.97;;;8.86;70.24
84821;BME280;75060;52.510;13.454;2023-12-29T05:21:39;100090.03;;;8.79;70.55
84821;BME280;75060;52.510;13.454;2023-12-29T05:24:05;100086.53;;;8.78;70.63
84821;BME280;75060;52.510;13.454;2023-12-29T05:26:31;100100.75;;;8.79;70.38
84821;BME280;75060;52.510;13.454;2023-12-29T05:28:56;100101.56;;;8.79;70.55
84821;BME280;75060;52.510;13.454;2023-12-29T05:31:21;100091.72;;;8.85;70.28
84821;BME280;75060;52.510;13.454;2023-12-29T05:33:47;100092.75;;;8.84;70.33
84821;BME280;75060;52.510;13.454;2023-12-29T05:36:12;100082.25;;;8.77;70.65
84821;BME280;75060;52.510;13.454;2023-12-29T05:38:37;100091.19;;;8.88;69.85
84821;BME280;75060;52.510;13.454;2023-12-29T05:41:04;100102.72;;;8.93;69.95
84821;BME280;75060;52.510;13.454;2023-12-29T05:43:31;100097.44;;;9.03;69.92
84821;BME280;75060;52.510;13.454;2023-12-29T05:45:56;100084.59;;;9.10;69.25
84821;BME280;75060;52.510;13.454;2023-12-29T05:48:22;100085.44;;;9.15;69.17
84821;BME280;75060;52.510;13.454;2023-12-29T05:50:47;100089.50;;;9.18;68.39
84821;BME280;75060;52.510;13.454;2023-12-29T05:53:12;100087.34;;;9.20;69.32
84821;BME280;75060;52.510;13.454;2023-12-29T05:55:40;100099.97;;;9.19;68.67
84821;BME280;75060;52.510;13.454;2023-12-29T05:58:05;100093.78;;;9.19;68.28
84821;BME280;75060;52.510;13.454;2023-12-29T06:00:30;100089.50;;;9.18;68.70
84821;BME280;75060;52.510;13.454;2023-12-29T06:02:56;100081.44;;;9.18;68.29
84821;BME280;75060;52.510;13.454;2023-12-29T06:05:21;100085.72;;;9.14;69.04
84821;BME280;75060;52.510;13.454;2023-12-29T06:07:46;100080.31;;;9.09;69.08
84821;BME280;75060;52.510;13.454;2023-12-29T06:10:11;100076.56;;;9.10;69.22
84821;BME280;75060;52.510;13.454;2023-12-29T06:12:37;100063.69;;;9.12;68.35
84821;BME280;75060;52.510;13.454;2023-12-29T06:15:02;100065.63;;;9.21;68.29
84821;BME280;75060;52.510;13.454;2023-12-29T06:17:28;100068.03;;;9.23;67.69
84821;BME280;75060;52.510;13.454;2023-12-29T06:19:53;100061.63;;;9.29;67.82
84821;BME280;75060;52.510;13.454;2023-12-29T06:22:18;100060.03;;;9.28;68.47
84821;BME280;75060;52.510;13.454;2023-12-29T06:24:43;100058.41;;;9.27;67.59
84821;BME280;75060;52.510;13.454;2023-12-29T06:27:10;100067.81;;;9.29;67.59
84821;BME280;75060;52.510;13.454;2023-12-29T06:29:35;100069.94;;;9.27;67.53
84821;BME280;75060;52.510;13.454;2023-12-29T06:32:02;100071.03;;;9.31;68.00
84821;BME280;75060;52.510;13.454;2023-12-29T06:34:27;100077.78;;;9.34;68.28
84821;BME280;75060;52.510;13.454;2023-12-29T06:36:52;100087.16;;;9.31;67.83
84821;BME280;75060;52.510;13.454;2023-12-29T06:39:18;100109.97;;;9.34;67.96
84821;BME280;75060;52.510;13.454;2023-12-29T06:41:43;100120.47;;;9.35;68.14
84821;BME280;75060;52.510;13.454;2023-12-29T06:44:08;100136.84;;;9.39;66.93
84821;BME280;75060;52.510;13.454;2023-12-29T06:46:34;100111.63;;;9.40;67.30
84821;BME280;75060;52.510;13.454;2023-12-29T06:48:59;100106.00;;;9.41;66.92
84821;BME280;75060;52.510;13.454;2023-12-29T06:51:24;100111.09;;;9.43;67.70
84821;BME280;75060;52.510;13.454;2023-12-29T06:53:50;100102.00;;;9.44;67.05
84821;BME280;75060;52.510;13.454;2023-12-29T06:56:16;100087.75;;;9.43;67.71
84821;BME280;75060;52.510;13.454;2023-12-29T06:58:42;100090.19;;;9.49;66.93
84821;BME280;75060;52.510;13.454;2023-12-29T07:01:07;100078.34;;;9.46;67.83
84821;BME280;75060;52.510;13.454;2023-12-29T07:03:32;100084.00;;;9.49;66.52
84821;BME280;75060;52.510;13.454;2023-12-29T07:06:00;100087.25;;;9.51;67.00
84821;BME280;75060;52.510;13.454;2023-12-29T07:08:26;100085.88;;;9.48;67.20
84821;BME280;75060;52.510;13.454;2023-12-29T07:10:51;100088.59;;;9.53;67.00
84821;BME280;75060;52.510;13.454;2023-12-29T07:13:17;100100.94;;;9.54;66.72
84821;BME280;75060;52.510;13.454;2023-12-29T07:15:42;100115.47;;;9.58;66.64
84821;BME280;75060;52.510;13.454;2023-12-29T07:18:07;100103.94;;;9.63;66.68
84821;BME280;75060;52.510;13.454;2023-12-29T07:20:33;100096.41;;;9.65;67.17
84821;BME280;75060;52.510;13.454;2023-12-29T07:22:58;100090.25;;;9.64;68.44
84821;BME280;75060;52.510;13.454;2023-12-29T07:25:24;100096.72;;;9.68;66.12
84821;BME280;75060;52.510;13.454;2023-12-29T07:27:50;100104.78;;;9.73;66.59
84821;BME280;75060;52.510;13.454;2023-12-29T07:30:15;100101.03;;;9.74;66.46
84821;BME280;75060;52.510;13.454;2023-12-29T07:32:41;100098.63;;;9.73;66.74
84821;BME280;75060;52.510;13.454;2023-12-29T07:35:06;100108.00;;;9.70;67.02
84821;BME280;75060;52.510;13.454;2023-12-29T07:37:31;100122.25;;;9.71;67.80
84821;BME280;75060;52.510;13.454;2023-12-29T07:39:57;100108.25;;;9.69;66.78
84821;BME280;75060;52.510;13.454;2023-12-29T07:42:22;100118.19;;;9.68;66.53
84821;BME280;75060;52.510;13.454;2023-12-29T07:44:47;100116.31;;;9.69;66.46
84821;BME280;75060;52.510;13.454;2023-12-29T07:47:13;100117.13;;;9.69;66.98
84821;BME280;75060;52.510;13.454;2023-12-29T07:49:38;100109.56;;;9.61;66.93
84821;BME280;75060;52.510;13.454;2023-12-29T07:52:03;100102.56;;;9.60;66.88
84821;BME280;75060;52.510;13.454;2023-12-29T07:54:29;100113.84;;;9.57;67.07
84821;BME280;75060;52.510;13.454;2023-12-29T07:56:54;100113.31;;;9.60;67.37
84821;BME280;75060;52.510;13.454;2023-12-29T07:59:20;100112.28;;;9.66;67.45
84821;BME280;75060;52.510;13.454;2023-12-29T08:01:46;100119.56;;;9.76;67.02
84821;BME280;75060;52.510;13.454;2023-12-29T08:04:11;100121.72;;;9.79;66.35
84821;BME280;75060;52.510;13.454;2023-12-29T08:06:37;100122.53;;;9.79;66.86
84821;BME280;75060;52.510;13.454;2023-12-29T08:09:03;100123.66;;;9.88;66.36
84821;BME280;75060;52.510;13.454;2023-12-29T08:11:29;100123.19;;;10.01;66.14
84821;BME280;75060;52.510;13.454;2023-12-29T08:13:54;100124.28;;;10.15;65.06
84821;BME280;75060;52.510;13.454;2023-12-29T08:16:20;100121.34;;;10.16;64.92
84821;BME280;75060;52.510;13.454;2023-12-29T08:18:46;100138.03;;;10.38;64.85
84821;BME280;75060;52.510;13.454;2023-12-29T08:21:19;100125.16;;;10.55;63.81
84821;BME280;75060;52.510;13.454;2023-12-29T08:23:48;100127.56;;;10.47;64.58
84821;BME280;75060;52.510;13.454;2023-12-29T08:26:14;100138.88;;;10.39;64.59
84821;BME280;75060;52.510;13.454;2023-12-29T08:28:40;100121.13;;;10.33;65.32
84821;BME280;75060;52.510;13.454;2023-12-29T08:31:06;100124.88;;;10.37;64.04
84821;BME280;75060;52.510;13.454;2023-12-29T08:33:32;100127.31;;;11.02;62.69
84821;BME280;75060;52.510;13.454;2023-12-29T08:35:57;100119.38;;;11.65;60.36
84821;BME280;75060;52.510;13.454;2023-12-29T08:38:28;100114.00;;;11.65;60.76
84821;BME280;75060;52.510;13.454;2023-12-29T08:40:54;100126.09;;;11.78;60.21
84821;BME280;75060;52.510;13.454;2023-12-29T08:43:19;100133.72;;;11.36;60.76
84821;BME280;75060;52.510;13.454;2023-12-29T08:45:47;100137.94;;;11.72;59.72
84821;BME280;75060;52.510;13.454;2023-12-29T08:48:12;100125.09;;;12.17;58.95
84821;BME280;75060;52.510;13.454;2023-12-29T08:50:38;100144.59;;;11.94;59.66
84821;BME280;75060;52.510;13.454;2023-12-29T08:53:03;100136.03;;;11.77;60.22
84821;BME280;75060;52.510;13.454;2023-12-29T08:55:29;100136.41;;;11.51;61.33
84821;BME280;75060;52.510;13.454;2023-12-29T08:57:54;100123.88;;;11.90;59.98
84821;BME280;75060;52.510;13.454;2023-12-29T09:00:20;100110.81;;;11.53;60.42
84821;BME280;75060;52.510;13.454;2023-12-29T09:02:45;100126.78;;;11.10;61.86
84821;BME280;75060;52.510;13.454;2023-12-29T09:05:11;100113.59;;;11.04;62.32
84821;BME280;75060;52.510;13.454;2023-12-29T09:07:37;100116.19;;;11.63;62.24
84821;BME280;75060;52.510;13.454;2023-12-29T09:10:02;100137.19;;;11.47;60.55
84821;BME280;75060;52.510;13.454;2023-12-29T09:12:28;100131.25;;;11.69;60.61
84821;BME280;75060;52.510;13.454;2023-12-29T09:14:53;100130.16;;;11.65;59.88
84821;BME280;75060;52.510;13.454;2023-12-29T09:17:19;100143.59;;;11.70;60.41
84821;BME280;75060;52.510;13.454;2023-12-29T09:19:44;100129.69;;;11.53;60.97
84821;BME280;75060;52.510;13.454;2023-12-29T09:22:10;100131.56;;;11.48;60.79
84821;BME280;75060;52.510;13.454;2023-12-29T09:24:35;100125.34;;;11.43;61.20
84821;BME280;75060;52.510;13.454;2023-12-29T09:27:00;100137.19;;;11.42;61.38
84821;BME280;75060;52.510;13.454;2023-12-29T09:29:26;100137.47;;;11.65;60.82
84821;BME280;75060;52.510;13.454;2023-12-29T09:31:51;100149.97;;;11.99;59.28
84821;BME280;75060;52.510;13.454;2023-12-29T09:34:17;100137.94;;;11.72;59.87
84821;BME280;75060;52.510;13.454;2023-12-29T09:36:42;100133.44;;;11.52;60.77
84821;BME280;75060;52.510;13.454;2023-12-29T09:39:08;100136.34;;;11.71;59.73
84821;BME280;75060;52.510;13.454;2023-12-29T09:41:35;100137.59;;;11.93;59.72
84821;BME280;75060;52.510;13.454;2023-12-29T09:44:06;100142.53;;;11.71;60.09
84821;BME280;75060;52.510;13.454;2023-12-29T09:46:37;100134.75;;;11.60;60.24
84821;BME280;75060;52.510;13.454;2023-12-29T09:49:03;100129.91;;;11.47;60.97
84821;BME280;75060;52.510;13.454;2023-12-29T09:51:30;100137.75;;;11.44;61.22
84821;BME280;75060;52.510;13.454;2023-12-29T09:53:56;100135.84;;;11.44;61.21
84821;BME280;75060;52.510;13.454;2023-12-29T09:56:24;100142.84;;;11.40;62.41
84821;BME280;75060;52.510;13.454;2023-12-29T09:58:51;100135.59;;;11.41;62.15
84821;BME280;75060;52.510;13.454;2023-12-29T10:01:18;100138.03;;;11.32;63.00
84821;BME280;75060;52.510;13.454;2023-12-29T10:03:44;100131.59;;;11.23;62.09
84821;BME280;75060;52.510;13.454;2023-12-29T10:06:13;100132.94;;;11.31;61.72
84821;BME280;75060;52.510;13.454;2023-12-29T10:08:45;100131.34;;;11.25;62.24
84821;BME280;75060;52.510;13.454;2023-12-29T10:11:12;100130.50;;;11.24;62.04
84821;BME280;75060;52.510;13.454;2023-12-29T10:13:39;100122.16;;;11.26;62.26
84821;BME280;75060;52.510;13.454;2023-12-29T10:16:18;100122.72;;;11.28;63.18
84821;BME280;75060;52.510;13.454;2023-12-29T10:19:10;100116.19;;;11.39;61.68
84821;BME280;75060;52.510;13.454;2023-12-29T10:21:46;100108.13;;;11.53;61.14
84821;BME280;75060;52.510;13.454;2023-12-29T10:24:21;100123.44;;;11.68;60.29
84821;BME280;75060;52.510;13.454;2023-12-29T10:26:47;100112.63;;;11.78;60.51
84821;BME280;75060;52.510;13.454;2023-12-29T10:29:13;100115.59;;;11.71;60.04
84821;BME280;75060;52.510;13.454;2023-12-29T10:31:39;100089.19;;;11.68;59.75
84821;BME280;75060;52.510;13.454;2023-12-29T10:34:20;100092.94;;;11.77;60.45
84821;BME280;75060;52.510;13.454;2023-12-29T10:36:49;100098.59;;;11.81;59.76
84821;BME280;75060;52.510;13.454;2023-12-29T10:39:14;100094.50;;;11.88;59.34
84821;BME280;75060;52.510;13.454;2023-12-29T10:41:40;100082.94;;;11.83;59.48
84821;BME280;75060;52.510;13.454;2023-12-29T10:44:07;100085.63;;;11.83;60.17
84821;BME280;75060;52.510;13.454;2023-12-29T10:46:32;100091.56;;;11.80;59.84
84821;BME280;75060;52.510;13.454;2023-12-29T10:51:34;100108.56;;;11.70;60.29
84821;BME280;75060;52.510;13.454;2023-12-29T10:53:59;100103.75;;;11.67;60.68
84821;BME280;75060;52.510;13.454;2023-12-29T10:56:25;100102.72;;;11.63;59.93
84821;BME280;75060;52.510;13.454;2023-12-29T10:59:02;100114.53;;;11.67;60.70
84821;BME280;75060;52.510;13.454;2023-12-29T11:01:29;100101.00;;;11.77;59.69
84821;BME280;75060;52.510;13.454;2023-12-29T11:03:59;100106.41;;;11.82;59.34
84821;BME280;75060;52.510;13.454;2023-12-29T11:06:26;100111.50;;;11.84;59.87
84821;BME280;75060;52.510;13.454;2023-12-29T11:08:52;100120.16;;;11.81;60.23
84821;BME280;75060;52.510;13.454;2023-12-29T11:11:18;100116.66;;;11.70;59.78
84821;BME280;75060;52.510;13.454;2023-12-29T11:13:46;100117.72;;;11.74;59.65
84821;BME280;75060;52.510;13.454;2023-12-29T11:16:12;100122.31;;;11.74;59.44
84821;BME280;75060;52.510;13.454;2023-12-29T11:18:38;100116.19;;;11.63;59.77
84821;BME280;75060;52.510;13.454;2023-12-29T11:21:04;100108.56;;;11.70;59.62
84821;BME280;75060;52.510;13.454;2023-12-29T11:23:30;100104.81;;;11.71;58.84
84821;BME280;75060;52.510;13.454;2023-12-29T11:25:56;100087.56;;;11.72;58.92
84821;BME280;75060;52.510;13.454;2023-12-29T11:28:24;100092.41;;;11.70;59.42
84821;BME280;75060;52.510;13.454;2023-12-29T11:30:50;100105.38;;;11.68;59.53
84821;BME280;75060;52.510;13.454;2023-12-29T11:33:26;100093.47;;;11.74;59.54
84821;BME280;75060;52.510;13.454;2023-12-29T11:36:23;100094.06;;;11.66;59.80
84821;BME280;75060;52.510;13.454;2023-12-29T11:39:38;100087.63;;;11.62;60.03
84821;BME280;75060;52.510;13.454;2023-12-29T11:42:23;100097.31;;;11.63;60.01
84821;BME280;75060;52.510;13.454;2023-12-29T11:44:55;100088.97;;;11.60;60.41
84821;BME280;75060;52.510;13.454;2023-12-29T11:47:43;100079.25;;;11.64;59.19
84821;BME280;75060;52.510;13.454;2023-12-29T11:50:09;100078.41;;;11.68;59.45
84821;BME280;75060;52.510;13.454;2023-12-29T11:52:36;100068.19;;;11.65;59.61
84821;BME280;75060;52.510;13.454;2023-12-29T11:55:12;100063.91;;;11.59;59.44
84821;BME280;75060;52.510;13.454;2023-12-29T11:57:39;100088.69;;;11.61;59.16
84821;BME280;75060;52.510;13.454;2023-12-29T12:00:06;100070.38;;;11.58;59.87
84821;BME280;75060;52.510;13.454;2023-12-29T12:02:32;100072.53;;;11.61;59.02
84821;BME280;75060;52.510;13.454;2023-12-29T12:04:57;100072.53;;;11.61;59.75
84821;BME280;75060;52.510;13.454;2023-12-29T12:09:48;100065.81;;;11.54;61.66
84821;BME280;75060;52.510;13.454;2023-12-29T12:12:41;100075.81;;;11.53;61.37
84821;BME280;75060;52.510;13.454;2023-12-29T12:18:02;100083.34;;;11.51;60.87
84821;BME280;75060;52.510;13.454;2023-12-29T12:20:32;100079.56;;;11.52;62.40
84821;BME280;75060;52.510;13.454;2023-12-29T12:23:12;100078.78;;;11.42;62.29
84821;BME280;75060;52.510;13.454;2023-12-29T12:25:42;100085.50;;;11.40;63.23
84821;BME280;75060;52.510;13.454;2023-12-29T12:28:09;100084.97;;;11.33;62.71
84821;BME280;75060;52.510;13.454;2023-12-29T12:30:34;100087.69;;;11.23;64.16
84821;BME280;75060;52.510;13.454;2023-12-29T12:33:01;100067.53;;;11.15;66.49
84821;BME280;75060;52.510;13.454;2023-12-29T12:35:28;100069.97;;;10.97;67.72
84821;BME280;75060;52.510;13.454;2023-12-29T12:38:13;100063.03;;;10.86;67.92
84821;BME280;75060;52.510;13.454;2023-12-29T12:40:38;100077.00;;;10.78;67.95
84821;BME280;75060;52.510;13.454;2023-12-29T12:43:04;100084.00;;;10.79;68.46
84821;BME280;75060;52.510;13.454;2023-12-29T12:45:34;100078.38;;;10.71;69.12
84821;BME280;75060;52.510;13.454;2023-12-29T12:48:12;100075.69;;;10.66;70.79
84821;BME280;75060;52.510;13.454;2023-12-29T12:50:43;100074.34;;;10.58;69.00
84821;BME280;75060;52.510;13.454;2023-12-29T12:53:11;100075.13;;;10.54;70.12